sensor_id;sensor_type;location;lat;lon;timestamp;noise_LAeq;noise_LA_min;noise_LA_max;noise_LA01;noise_LA95
48148;Laerm;29352;48.708;9.290;2023-06-26T00:00:14;52.70;51.53;53.63;;
48148;Laerm;29352;48.708;9.290;2023-06-26T00:02:40;52.70;51.53;53.81;;
48148;Laerm;29352;48.708;9.290;2023-06-26T00:05:05;52.67;45.94;53.68;;
48148;Laerm;29352;48.708;9.290;2023-06-26T00:07:31;52.69;51.53;53.68;;
48148;Laerm;29352;48.708;9.290;2023-06-26T00:10:01;52.67;51.61;53.68;;
48148;Laerm;29352;48.708;9.290;2023-06-26T00:12:28;52.71;51.53;53.72;;
48148;Laerm;29352;48.708;9.290;2023-06-26T00:14:54;52.71;51.53;53.68;;
48148;Laerm;29352;48.708;9.290;2023-06-26T00:17:21;52.70;51.30;53.68;;
48148;Laerm;29352;48.708;9.290;2023-06-26T00:19:47;52.69;51.61;53.68;;
48148;Laerm;29352;48.708;9.290;2023-06-26T00:22:12;52.68;51.38;53.94;;
48148;Laerm;29352;48.708;9.290;2023-06-26T00:24:38;52.73;51.48;53.86;;
48148;Laerm;29352;48.708;9.290;2023-06-26T00:27:03;52.74;51.61;53.81;;
48148;Laerm;29352;48.708;9.290;2023-06-26T00:29:29;52.63;51.61;53.63;;
48148;Laerm;29352;48.708;9.290;2023-06-26T00:31:54;52.61;51.53;53.81;;
48148;Laerm;29352;48.708;9.290;2023-06-26T00:34:19;52.57;51.46;53.54;;
48148;Laerm;29352;48.708;9.290;2023-06-26T00:36:45;52.58;51.46;53.68;;
48148;Laerm;29352;48.708;9.290;2023-06-26T00:39:11;52.60;51.46;53.81;;
48148;Laerm;29352;48.708;9.290;2023-06-26T00:41:37;52.58;51.46;53.86;;
48148;Laerm;29352;48.708;9.290;2023-06-26T00:44:04;52.57;51.53;53.77;;
48148;Laerm;29352;48.708;9.290;2023-06-26T00:46:31;52.56;51.30;53.63;;
48148;Laerm;29352;48.708;9.290;2023-06-26T00:49:00;52.60;51.38;53.86;;
48148;Laerm;29352;48.708;9.290;2023-06-26T00:51:29;52.61;51.53;53.63;;
48148;Laerm;29352;48.708;9.290;2023-06-26T00:53:56;52.63;51.46;53.68;;
48148;Laerm;29352;48.708;9.290;2023-06-26T00:56:23;52.63;51.30;53.63;;
48148;Laerm;29352;48.708;9.290;2023-06-26T00:58:49;52.63;51.38;53.63;;
48148;Laerm;29352;48.708;9.290;2023-06-26T01:01:15;52.59;51.38;53.51;;
48148;Laerm;29352;48.708;9.290;2023-06-26T01:03:49;52.59;51.46;53.72;;
48148;Laerm;29352;48.708;9.290;2023-06-26T01:06:22;52.57;51.46;53.63;;
48148;Laerm;29352;48.708;9.290;2023-06-26T01:08:50;52.56;51.53;53.81;;
48148;Laerm;29352;48.708;9.290;2023-06-26T01:11:18;52.57;51.46;53.58;;
48148;Laerm;29352;48.708;9.290;2023-06-26T01:13:44;52.61;51.38;53.54;;
48148;Laerm;29352;48.708;9.290;2023-06-26T01:16:11;52.58;51.30;53.58;;
48148;Laerm;29352;48.708;9.290;2023-06-26T01:18:40;52.57;51.38;53.58;;
48148;Laerm;29352;48.708;9.290;2023-06-26T01:21:13;52.56;51.30;54.43;;
48148;Laerm;29352;48.708;9.290;2023-06-26T01:26:22;52.52;51.30;54.35;;
48148;Laerm;29352;48.708;9.290;2023-06-26T01:28:52;52.52;51.22;54.39;;
48148;Laerm;29352;48.708;9.290;2023-06-26T01:31:19;52.53;51.46;53.54;;
48148;Laerm;29352;48.708;9.290;2023-06-26T01:33:47;52.56;51.30;59.66;;
48148;Laerm;29352;48.708;9.290;2023-06-26T01:36:12;52.54;51.30;58.10;;
48148;Laerm;29352;48.708;9.290;2023-06-26T01:38:38;52.53;51.19;53.72;;
48148;Laerm;29352;48.708;9.290;2023-06-26T01:41:05;52.55;51.38;53.68;;
48148;Laerm;29352;48.708;9.290;2023-06-26T01:47:09;52.49;51.30;53.58;;
48148;Laerm;29352;48.708;9.290;2023-06-26T01:50:02;52.51;51.22;54.03;;
48148;Laerm;29352;48.708;9.290;2023-06-26T01:52:58;52.46;51.38;53.49;;
48148;Laerm;29352;48.708;9.290;2023-06-26T01:55:51;52.46;51.38;53.63;;
48148;Laerm;29352;48.708;9.290;2023-06-26T01:58:24;52.45;51.22;53.58;;
48148;Laerm;29352;48.708;9.290;2023-06-26T02:00:50;52.44;51.14;53.63;;
48148;Laerm;29352;48.708;9.290;2023-06-26T02:03:16;52.42;51.14;53.63;;
48148;Laerm;29352;48.708;9.290;2023-06-26T02:05:41;52.42;51.14;53.44;;
48148;Laerm;29352;48.708;9.290;2023-06-26T02:08:08;52.45;51.22;53.39;;
48148;Laerm;29352;48.708;9.290;2023-06-26T02:10:34;52.42;51.22;53.58;;
48148;Laerm;29352;48.708;9.290;2023-06-26T02:13:00;52.42;51.22;53.34;;
48148;Laerm;29352;48.708;9.290;2023-06-26T02:15:26;52.42;51.14;53.49;;
48148;Laerm;29352;48.708;9.290;2023-06-26T02:17:51;52.39;51.22;53.44;;
48148;Laerm;29352;48.708;9.290;2023-06-26T02:20:17;52.39;51.14;53.49;;
48148;Laerm;29352;48.708;9.290;2023-06-26T02:22:42;52.40;51.14;53.39;;
48148;Laerm;29352;48.708;9.290;2023-06-26T02:25:10;52.38;51.22;53.44;;
48148;Laerm;29352;48.708;9.290;2023-06-26T02:27:35;52.36;51.14;53.44;;
48148;Laerm;29352;48.708;9.290;2023-06-26T02:30:01;52.32;51.14;53.34;;
48148;Laerm;29352;48.708;9.290;2023-06-26T02:32:27;52.32;51.14;53.68;;
48148;Laerm;29352;48.708;9.290;2023-06-26T02:34:52;52.32;51.06;53.44;;
48148;Laerm;29352;48.708;9.290;2023-06-26T02:37:19;52.32;51.14;53.54;;
48148;Laerm;29352;48.708;9.290;2023-06-26T02:39:45;52.33;51.22;56.84;;
48148;Laerm;29352;48.708;9.290;2023-06-26T02:42:10;52.40;51.14;61.56;;
48148;Laerm;29352;48.708;9.290;2023-06-26T02:44:36;52.35;51.06;53.99;;
48148;Laerm;29352;48.708;9.290;2023-06-26T02:47:01;52.37;51.22;53.39;;
48148;Laerm;29352;48.708;9.290;2023-06-26T02:49:26;52.36;51.14;53.54;;
48148;Laerm;29352;48.708;9.290;2023-06-26T02:51:52;52.34;51.06;53.49;;
48148;Laerm;29352;48.708;9.290;2023-06-26T02:54:17;52.30;50.71;53.14;;
48148;Laerm;29352;48.708;9.290;2023-06-26T02:56:43;52.28;51.14;53.34;;
48148;Laerm;29352;48.708;9.290;2023-06-26T02:59:08;52.31;51.06;55.11;;
48148;Laerm;29352;48.708;9.290;2023-06-26T03:01:34;52.31;51.14;55.45;;
48148;Laerm;29352;48.708;9.290;2023-06-26T03:03:59;52.30;50.98;56.23;;
48148;Laerm;29352;48.708;9.290;2023-06-26T03:06:26;52.29;51.22;54.51;;
48148;Laerm;29352;48.708;9.290;2023-06-26T03:08:53;52.30;51.14;55.33;;
48148;Laerm;29352;48.708;9.290;2023-06-26T03:11:19;52.33;51.06;54.07;;
48148;Laerm;29352;48.708;9.290;2023-06-26T03:13:45;52.34;50.80;56.28;;
48148;Laerm;29352;48.708;9.290;2023-06-26T03:16:11;52.83;51.11;76.46;;
48148;Laerm;29352;48.708;9.290;2023-06-26T03:18:36;52.33;51.14;58.94;;
48148;Laerm;29352;48.708;9.290;2023-06-26T03:21:02;52.29;51.06;54.43;;
48148;Laerm;29352;48.708;9.290;2023-06-26T03:23:27;52.29;50.89;56.95;;
48148;Laerm;29352;48.708;9.290;2023-06-26T03:25:53;52.32;51.06;56.66;;
48148;Laerm;29352;48.708;9.290;2023-06-26T03:28:19;52.27;50.71;55.07;;
48148;Laerm;29352;48.708;9.290;2023-06-26T03:30:44;52.34;50.89;58.29;;
48148;Laerm;29352;48.708;9.290;2023-06-26T03:33:10;52.34;50.71;57.61;;
48148;Laerm;29352;48.708;9.290;2023-06-26T03:35:36;52.35;50.98;59.87;;
48148;Laerm;29352;48.708;9.290;2023-06-26T03:38:04;52.35;51.14;56.18;;
48148;Laerm;29352;48.708;9.290;2023-06-26T03:40:29;52.37;51.06;54.58;;
48148;Laerm;29352;48.708;9.290;2023-06-26T03:42:55;52.44;51.46;58.51;;
48148;Laerm;29352;48.708;9.290;2023-06-26T03:45:20;52.49;51.38;54.62;;
48148;Laerm;29352;48.708;9.290;2023-06-26T03:47:46;52.52;51.30;53.90;;
48148;Laerm;29352;48.708;9.290;2023-06-26T03:50:18;52.60;51.53;53.63;;
48148;Laerm;29352;48.708;9.290;2023-06-26T03:52:44;52.68;51.38;53.63;;
48148;Laerm;29352;48.708;9.290;2023-06-26T03:55:10;52.74;51.61;54.19;;
48148;Laerm;29352;48.708;9.290;2023-06-26T03:57:35;52.77;51.55;53.77;;
48148;Laerm;29352;48.708;9.290;2023-06-26T04:00:02;52.81;51.53;53.90;;
48148;Laerm;29352;48.708;9.290;2023-06-26T04:02:31;52.87;51.68;53.81;;
48148;Laerm;29352;48.708;9.290;2023-06-26T04:04:56;52.91;51.75;53.86;;
48148;Laerm;29352;48.708;9.290;2023-06-26T04:07:22;52.93;51.75;53.94;;
48148;Laerm;29352;48.708;9.290;2023-06-26T04:09:47;52.94;51.53;53.99;;
48148;Laerm;29352;48.708;9.290;2023-06-26T04:12:13;52.96;51.82;54.03;;
48148;Laerm;29352;48.708;9.290;2023-06-26T04:14:39;52.96;51.89;53.90;;
48148;Laerm;29352;48.708;9.290;2023-06-26T04:17:04;52.96;51.68;53.90;;
48148;Laerm;29352;48.708;9.290;2023-06-26T04:19:30;52.97;51.82;53.99;;
48148;Laerm;29352;48.708;9.290;2023-06-26T04:21:56;52.96;51.75;53.99;;
48148;Laerm;29352;48.708;9.290;2023-06-26T04:24:22;52.96;51.82;53.94;;
48148;Laerm;29352;48.708;9.290;2023-06-26T04:26:48;52.97;51.82;54.11;;
48148;Laerm;29352;48.708;9.290;2023-06-26T04:29:14;52.96;51.82;54.11;;
48148;Laerm;29352;48.708;9.290;2023-06-26T04:31:40;52.97;51.53;53.99;;
48148;Laerm;29352;48.708;9.290;2023-06-26T04:34:05;52.96;51.82;54.03;;
48148;Laerm;29352;48.708;9.290;2023-06-26T04:36:31;52.95;51.75;53.86;;
48148;Laerm;29352;48.708;9.290;2023-06-26T04:38:58;52.95;51.82;54.07;;
48148;Laerm;29352;48.708;9.290;2023-06-26T04:41:25;52.95;51.68;54.07;;
48148;Laerm;29352;48.708;9.290;2023-06-26T04:43:50;52.95;51.82;53.94;;
48148;Laerm;29352;48.708;9.290;2023-06-26T04:46:16;52.96;51.75;53.89;;
48148;Laerm;29352;48.708;9.290;2023-06-26T04:48:42;52.96;51.75;53.99;;
48148;Laerm;29352;48.708;9.290;2023-06-26T04:51:10;52.96;51.75;58.08;;
48148;Laerm;29352;48.708;9.290;2023-06-26T04:53:36;52.95;51.75;54.03;;
48148;Laerm;29352;48.708;9.290;2023-06-26T04:56:01;52.95;51.89;53.93;;
48148;Laerm;29352;48.708;9.290;2023-06-26T04:58:26;52.98;51.96;54.03;;
48148;Laerm;29352;48.708;9.290;2023-06-26T05:00:52;52.94;51.75;53.90;;
48148;Laerm;29352;48.708;9.290;2023-06-26T05:03:18;52.96;51.89;56.35;;
48148;Laerm;29352;48.708;9.290;2023-06-26T05:05:44;52.97;51.82;54.03;;
48148;Laerm;29352;48.708;9.290;2023-06-26T05:08:17;52.95;51.82;54.23;;
48148;Laerm;29352;48.708;9.290;2023-06-26T05:10:43;53.00;51.68;60.70;;
48148;Laerm;29352;48.708;9.290;2023-06-26T05:13:09;53.02;51.89;53.99;;
48148;Laerm;29352;48.708;9.290;2023-06-26T05:15:35;53.02;51.75;54.15;;
48148;Laerm;29352;48.708;9.290;2023-06-26T05:18:00;52.99;51.82;53.94;;
48148;Laerm;29352;48.708;9.290;2023-06-26T05:20:25;52.98;51.89;53.99;;
48148;Laerm;29352;48.708;9.290;2023-06-26T05:22:52;53.00;51.89;53.99;;
48148;Laerm;29352;48.708;9.290;2023-06-26T05:25:19;53.05;51.89;54.15;;
48148;Laerm;29352;48.708;9.290;2023-06-26T05:27:48;53.08;52.03;54.15;;
48148;Laerm;29352;48.708;9.290;2023-06-26T05:30:14;53.07;51.96;54.16;;
48148;Laerm;29352;48.708;9.290;2023-06-26T05:32:40;53.11;52.03;54.15;;
48148;Laerm;29352;48.708;9.290;2023-06-26T05:35:07;53.11;52.03;54.03;;
48148;Laerm;29352;48.708;9.290;2023-06-26T05:37:34;53.11;51.94;54.03;;
48148;Laerm;29352;48.708;9.290;2023-06-26T05:40:01;53.12;51.61;54.19;;
48148;Laerm;29352;48.708;9.290;2023-06-26T05:42:29;53.11;51.89;54.15;;
48148;Laerm;29352;48.708;9.290;2023-06-26T05:44:55;53.14;52.03;54.11;;
48148;Laerm;29352;48.708;9.290;2023-06-26T05:47:21;53.14;51.96;54.07;;
48148;Laerm;29352;48.708;9.290;2023-06-26T05:49:46;53.14;51.96;54.19;;
48148;Laerm;29352;48.708;9.290;2023-06-26T05:52:13;53.13;52.03;54.03;;
48148;Laerm;29352;48.708;9.290;2023-06-26T05:54:39;53.13;51.89;57.55;;
48148;Laerm;29352;48.708;9.290;2023-06-26T05:57:04;53.10;51.89;54.15;;
48148;Laerm;29352;48.708;9.290;2023-06-26T05:59:39;53.06;51.89;54.07;;
48148;Laerm;29352;48.708;9.290;2023-06-26T06:02:05;53.04;51.89;55.83;;
48148;Laerm;29352;48.708;9.290;2023-06-26T06:04:31;53.02;51.82;54.07;;
48148;Laerm;29352;48.708;9.290;2023-06-26T06:06:56;53.02;51.89;54.03;;
48148;Laerm;29352;48.708;9.290;2023-06-26T06:09:21;53.02;51.96;54.07;;
48148;Laerm;29352;48.708;9.290;2023-06-26T06:11:47;53.04;51.89;54.07;;
48148;Laerm;29352;48.708;9.290;2023-06-26T06:14:13;52.99;51.75;54.07;;
48148;Laerm;29352;48.708;9.290;2023-06-26T06:16:38;52.95;51.82;53.90;;
48148;Laerm;29352;48.708;9.290;2023-06-26T06:19:04;52.88;51.06;53.94;;
48148;Laerm;29352;48.708;9.290;2023-06-26T06:21:32;52.79;51.38;53.81;;
48148;Laerm;29352;48.708;9.290;2023-06-26T06:23:57;52.79;51.38;53.90;;
48148;Laerm;29352;48.708;9.290;2023-06-26T06:26:23;52.82;51.46;54.19;;
48148;Laerm;29352;48.708;9.290;2023-06-26T06:28:48;52.78;51.46;53.94;;
48148;Laerm;29352;48.708;9.290;2023-06-26T06:31:14;52.72;51.38;54.03;;
48148;Laerm;29352;48.708;9.290;2023-06-26T06:33:39;52.70;51.38;53.77;;
48148;Laerm;29352;48.708;9.290;2023-06-26T06:36:05;52.69;51.30;53.86;;
48148;Laerm;29352;48.708;9.290;2023-06-26T06:38:31;52.66;51.41;53.77;;
48148;Laerm;29352;48.708;9.290;2023-06-26T06:40:57;52.60;51.30;53.63;;
48148;Laerm;29352;48.708;9.290;2023-06-26T06:43:22;52.59;51.22;53.77;;
48148;Laerm;29352;48.708;9.290;2023-06-26T06:45:48;52.59;51.38;53.72;;
48148;Laerm;29352;48.708;9.290;2023-06-26T06:48:13;52.58;51.22;53.58;;
48148;Laerm;29352;48.708;9.290;2023-06-26T06:50:39;52.57;51.14;53.58;;
48148;Laerm;29352;48.708;9.290;2023-06-26T06:53:04;52.51;51.06;53.72;;
48148;Laerm;29352;48.708;9.290;2023-06-26T06:55:30;52.55;50.98;53.68;;
48148;Laerm;29352;48.708;9.290;2023-06-26T06:57:55;52.44;50.98;53.58;;
48148;Laerm;29352;48.708;9.290;2023-06-26T07:00:20;52.35;50.80;53.68;;
48148;Laerm;29352;48.708;9.290;2023-06-26T07:02:46;52.30;50.79;53.58;;
48148;Laerm;29352;48.708;9.290;2023-06-26T07:05:12;52.25;50.62;53.49;;
48148;Laerm;29352;48.708;9.290;2023-06-26T07:07:39;52.20;50.80;53.34;;
48148;Laerm;29352;48.708;9.290;2023-06-26T07:10:11;52.15;50.88;53.54;;
48148;Laerm;29352;48.708;9.290;2023-06-26T07:12:37;52.09;50.43;53.49;;
48148;Laerm;29352;48.708;9.290;2023-06-26T07:15:05;51.98;50.43;53.29;;
48148;Laerm;29352;48.708;9.290;2023-06-26T07:17:32;51.94;50.23;53.19;;
48148;Laerm;29352;48.708;9.290;2023-06-26T07:20:00;51.77;50.03;53.04;;
48148;Laerm;29352;48.708;9.290;2023-06-26T07:22:26;51.75;50.03;53.04;;
48148;Laerm;29352;48.708;9.290;2023-06-26T07:24:52;51.71;49.92;52.95;;
48148;Laerm;29352;48.708;9.290;2023-06-26T07:27:18;51.72;50.03;53.09;;
48148;Laerm;29352;48.708;9.290;2023-06-26T07:29:44;51.70;50.27;52.98;;
48148;Laerm;29352;48.708;9.290;2023-06-26T07:32:11;51.68;50.23;52.98;;
48148;Laerm;29352;48.708;9.290;2023-06-26T07:34:37;51.67;50.03;53.04;;
48148;Laerm;29352;48.708;9.290;2023-06-26T07:37:03;51.64;49.92;52.98;;
48148;Laerm;29352;48.708;9.290;2023-06-26T07:39:29;51.60;49.81;52.76;;
48148;Laerm;29352;48.708;9.290;2023-06-26T07:41:54;51.54;49.58;52.88;;
48148;Laerm;29352;48.708;9.290;2023-06-26T07:44:20;51.51;49.70;52.93;;
48148;Laerm;29352;48.708;9.290;2023-06-26T07:46:45;51.50;49.81;52.88;;
48148;Laerm;29352;48.708;9.290;2023-06-26T07:49:11;51.47;49.58;52.71;;
48148;Laerm;29352;48.708;9.290;2023-06-26T07:51:37;51.49;49.70;52.82;;
48148;Laerm;29352;48.708;9.290;2023-06-26T07:54:03;51.47;49.92;52.88;;
48148;Laerm;29352;48.708;9.290;2023-06-26T07:56:29;51.44;49.68;52.88;;
48148;Laerm;29352;48.708;9.290;2023-06-26T07:58:54;51.49;50.03;52.76;;
48148;Laerm;29352;48.708;9.290;2023-06-26T08:01:20;51.43;49.68;52.93;;
48148;Laerm;29352;48.708;9.290;2023-06-26T08:03:45;51.45;49.92;52.98;;
48148;Laerm;29352;48.708;9.290;2023-06-26T08:06:11;51.43;49.81;52.88;;
48148;Laerm;29352;48.708;9.290;2023-06-26T08:08:36;51.39;49.81;52.76;;
48148;Laerm;29352;48.708;9.290;2023-06-26T08:11:02;51.43;49.92;52.82;;
48148;Laerm;29352;48.708;9.290;2023-06-26T08:13:28;51.42;49.78;52.59;;
48148;Laerm;29352;48.708;9.290;2023-06-26T08:15:53;51.45;49.92;52.82;;
48148;Laerm;29352;48.708;9.290;2023-06-26T08:18:18;51.40;49.92;52.82;;
48148;Laerm;29352;48.708;9.290;2023-06-26T08:20:44;51.40;49.70;52.79;;
48148;Laerm;29352;48.708;9.290;2023-06-26T08:23:10;51.34;49.70;52.53;;
48148;Laerm;29352;48.708;9.290;2023-06-26T08:25:35;51.40;49.58;52.93;;
48148;Laerm;29352;48.708;9.290;2023-06-26T08:28:00;51.35;49.58;52.76;;
48148;Laerm;29352;48.708;9.290;2023-06-26T08:30:26;51.39;49.81;52.76;;
48148;Laerm;29352;48.708;9.290;2023-06-26T08:32:55;51.43;49.70;52.82;;
48148;Laerm;29352;48.708;9.290;2023-06-26T08:35:20;51.48;50.13;52.71;;
48148;Laerm;29352;48.708;9.290;2023-06-26T08:37:46;51.50;49.92;52.82;;
48148;Laerm;29352;48.708;9.290;2023-06-26T08:40:12;51.49;50.03;52.82;;
48148;Laerm;29352;48.708;9.290;2023-06-26T08:42:38;51.48;49.92;52.76;;
48148;Laerm;29352;48.708;9.290;2023-06-26T08:45:03;51.45;49.81;52.65;;
48148;Laerm;29352;48.708;9.290;2023-06-26T08:47:34;51.35;49.81;52.71;;
48148;Laerm;29352;48.708;9.290;2023-06-26T08:50:13;51.40;49.81;52.76;;
48148;Laerm;29352;48.708;9.290;2023-06-26T08:55:27;51.25;49.21;52.65;;
48148;Laerm;29352;48.708;9.290;2023-06-26T08:57:54;51.20;49.57;52.59;;
48148;Laerm;29352;48.708;9.290;2023-06-26T09:00:19;51.03;49.08;52.35;;
48148;Laerm;29352;48.708;9.290;2023-06-26T09:02:46;51.04;49.21;52.59;;
48148;Laerm;29352;48.708;9.290;2023-06-26T09:05:12;51.22;49.81;52.65;;
48148;Laerm;29352;48.708;9.290;2023-06-26T09:07:37;51.35;49.70;52.71;;
48148;Laerm;29352;48.708;9.290;2023-06-26T09:10:03;51.43;49.99;52.71;;
48148;Laerm;29352;48.708;9.290;2023-06-26T09:12:31;51.46;49.81;52.65;;
48148;Laerm;29352;48.708;9.290;2023-06-26T09:14:56;51.50;49.81;52.88;;
48148;Laerm;29352;48.708;9.290;2023-06-26T09:17:30;51.47;49.92;52.88;;
48148;Laerm;29352;48.708;9.290;2023-06-26T09:19:56;51.42;49.70;52.71;;
48148;Laerm;29352;48.708;9.290;2023-06-26T09:22:23;51.47;49.81;52.82;;
48148;Laerm;29352;48.708;9.290;2023-06-26T09:24:49;51.36;49.70;52.71;;
48148;Laerm;29352;48.708;9.290;2023-06-26T09:27:17;51.39;49.70;52.76;;
48148;Laerm;29352;48.708;9.290;2023-06-26T09:29:45;51.35;49.34;52.65;;
48148;Laerm;29352;48.708;9.290;2023-06-26T09:32:13;51.25;49.46;52.59;;
48148;Laerm;29352;48.708;9.290;2023-06-26T09:34:42;51.29;49.81;52.71;;
48148;Laerm;29352;48.708;9.290;2023-06-26T09:37:12;51.21;49.58;52.47;;
48148;Laerm;29352;48.708;9.290;2023-06-26T09:39:39;51.22;49.58;52.53;;
48148;Laerm;29352;48.708;9.290;2023-06-26T09:42:04;51.13;49.08;52.82;;
48148;Laerm;29352;48.708;9.290;2023-06-26T09:44:33;51.18;49.34;52.71;;
48148;Laerm;29352;48.708;9.290;2023-06-26T09:47:01;51.29;49.70;52.76;;
48148;Laerm;29352;48.708;9.290;2023-06-26T09:49:30;51.22;49.58;52.53;;
48148;Laerm;29352;48.708;9.290;2023-06-26T09:51:56;51.14;49.21;52.59;;
48148;Laerm;29352;48.708;9.290;2023-06-26T09:54:23;51.33;49.81;52.59;;
48148;Laerm;29352;48.708;9.290;2023-06-26T09:56:49;51.28;49.70;52.41;;
48148;Laerm;29352;48.708;9.290;2023-06-26T09:59:15;51.23;49.81;52.71;;
48148;Laerm;29352;48.708;9.290;2023-06-26T10:01:45;51.06;49.08;52.42;;
48148;Laerm;29352;48.708;9.290;2023-06-26T10:04:10;51.03;49.08;52.53;;
48148;Laerm;29352;48.708;9.290;2023-06-26T10:06:45;51.16;49.46;52.65;;
48148;Laerm;29352;48.708;9.290;2023-06-26T10:09:16;51.18;49.21;52.35;;
48148;Laerm;29352;48.708;9.290;2023-06-26T10:11:55;51.29;49.58;52.71;;
48148;Laerm;29352;48.708;9.290;2023-06-26T10:14:26;51.40;49.78;52.76;;
48148;Laerm;29352;48.708;9.290;2023-06-26T10:16:57;51.33;49.58;52.76;;
48148;Laerm;29352;48.708;9.290;2023-06-26T10:19:28;51.17;49.21;52.93;;
48148;Laerm;29352;48.708;9.290;2023-06-26T10:21:55;51.02;49.08;52.35;;
48148;Laerm;29352;48.708;9.290;2023-06-26T10:24:23;50.94;49.21;52.47;;
48148;Laerm;29352;48.708;9.290;2023-06-26T10:26:57;50.87;48.81;52.22;;
48148;Laerm;29352;48.708;9.290;2023-06-26T10:29:26;50.81;49.08;52.22;;
48148;Laerm;29352;48.708;9.290;2023-06-26T10:31:58;50.79;48.95;52.41;;
48148;Laerm;29352;48.708;9.290;2023-06-26T10:34:26;51.00;49.08;52.59;;
48148;Laerm;29352;48.708;9.290;2023-06-26T10:37:04;51.01;49.34;52.41;;
48148;Laerm;29352;48.708;9.290;2023-06-26T10:39:50;50.95;48.95;52.47;;
48148;Laerm;29352;48.708;9.290;2023-06-26T10:42:34;50.91;49.08;52.41;;
48148;Laerm;29352;48.708;9.290;2023-06-26T10:45:19;50.82;48.67;52.41;;
48148;Laerm;29352;48.708;9.290;2023-06-26T10:47:48;50.81;48.67;52.47;;
48148;Laerm;29352;48.708;9.290;2023-06-26T10:50:30;50.87;49.08;52.35;;
48148;Laerm;29352;48.708;9.290;2023-06-26T10:56:07;50.85;48.95;52.41;;
48148;Laerm;29352;48.708;9.290;2023-06-26T11:01:20;50.93;49.08;52.53;;
48148;Laerm;29352;48.708;9.290;2023-06-26T11:06:24;51.13;48.52;52.47;;
48148;Laerm;29352;48.708;9.290;2023-06-26T11:08:54;51.23;49.46;52.71;;
48148;Laerm;29352;48.708;9.290;2023-06-26T11:14:31;51.34;49.70;52.65;;
48148;Laerm;29352;48.708;9.290;2023-06-26T11:16:58;51.32;49.68;53.04;;
48148;Laerm;29352;48.708;9.290;2023-06-26T11:19:27;51.34;49.70;52.71;;
48148;Laerm;29352;48.708;9.290;2023-06-26T11:21:58;51.36;49.81;52.71;;
48148;Laerm;29352;48.708;9.290;2023-06-26T11:24:26;51.41;49.81;52.82;;
48148;Laerm;29352;48.708;9.290;2023-06-26T11:26:52;51.34;49.89;52.76;;
48148;Laerm;29352;48.708;9.290;2023-06-26T11:29:18;51.35;49.81;52.59;;
48148;Laerm;29352;48.708;9.290;2023-06-26T11:31:43;51.38;49.58;52.71;;
48148;Laerm;29352;48.708;9.290;2023-06-26T11:34:12;51.38;49.58;52.59;;
48148;Laerm;29352;48.708;9.290;2023-06-26T11:36:42;51.40;49.70;53.81;;
48148;Laerm;29352;48.708;9.290;2023-06-26T11:39:10;51.36;49.34;52.76;;
48148;Laerm;29352;48.708;9.290;2023-06-26T11:41:39;51.34;49.70;52.64;;
48148;Laerm;29352;48.708;9.290;2023-06-26T11:44:10;51.36;49.34;52.59;;
48148;Laerm;29352;48.708;9.290;2023-06-26T11:46:37;51.36;49.81;52.76;;
48148;Laerm;29352;48.708;9.290;2023-06-26T11:49:07;51.34;49.70;52.71;;
48148;Laerm;29352;48.708;9.290;2023-06-26T11:51:42;51.38;49.70;52.59;;
48148;Laerm;29352;48.708;9.290;2023-06-26T11:54:08;51.39;49.81;52.59;;
48148;Laerm;29352;48.708;9.290;2023-06-26T11:56:33;51.39;49.81;52.71;;
48148;Laerm;29352;48.708;9.290;2023-06-26T11:59:07;51.37;50.03;53.04;;
48148;Laerm;29352;48.708;9.290;2023-06-26T12:01:44;51.33;49.46;52.65;;
48148;Laerm;29352;48.708;9.290;2023-06-26T12:04:14;51.33;49.70;52.69;;
48148;Laerm;29352;48.708;9.290;2023-06-26T12:06:52;51.30;49.58;52.65;;
48148;Laerm;29352;48.708;9.290;2023-06-26T12:09:23;51.31;49.46;52.82;;
48148;Laerm;29352;48.708;9.290;2023-06-26T12:11:54;51.33;49.58;52.65;;
48148;Laerm;29352;48.708;9.290;2023-06-26T12:14:22;51.33;49.70;52.82;;
48148;Laerm;29352;48.708;9.290;2023-06-26T12:16:48;51.34;49.58;52.53;;
48148;Laerm;29352;48.708;9.290;2023-06-26T12:19:15;51.30;49.70;52.65;;
48148;Laerm;29352;48.708;9.290;2023-06-26T12:24:09;51.30;49.70;52.82;;
48148;Laerm;29352;48.708;9.290;2023-06-26T12:26:36;51.16;49.58;52.65;;
48148;Laerm;29352;48.708;9.290;2023-06-26T12:29:07;51.16;49.46;52.53;;
48148;Laerm;29352;48.708;9.290;2023-06-26T12:31:34;51.20;49.34;52.71;;
48148;Laerm;29352;48.708;9.290;2023-06-26T12:34:00;51.25;49.58;52.53;;
48148;Laerm;29352;48.708;9.290;2023-06-26T12:36:26;51.26;49.81;52.53;;
48148;Laerm;29352;48.708;9.290;2023-06-26T12:38:55;51.25;49.58;52.65;;
48148;Laerm;29352;48.708;9.290;2023-06-26T12:41:24;51.21;49.46;52.59;;
48148;Laerm;29352;48.708;9.290;2023-06-26T12:43:56;51.18;49.58;52.41;;
48148;Laerm;29352;48.708;9.290;2023-06-26T12:46:36;51.14;49.21;52.47;;
48148;Laerm;29352;48.708;9.290;2023-06-26T12:49:01;51.17;49.58;52.47;;
48148;Laerm;29352;48.708;9.290;2023-06-26T12:51:28;51.17;49.34;52.47;;
48148;Laerm;29352;48.708;9.290;2023-06-26T12:53:53;51.16;49.57;52.41;;
48148;Laerm;29352;48.708;9.290;2023-06-26T12:56:19;51.16;49.21;52.98;;
48148;Laerm;29352;48.708;9.290;2023-06-26T12:58:45;51.14;49.34;52.65;;
48148;Laerm;29352;48.708;9.290;2023-06-26T13:01:11;51.11;49.34;52.41;;
48148;Laerm;29352;48.708;9.290;2023-06-26T13:03:38;51.13;49.46;52.59;;
48148;Laerm;29352;48.708;9.290;2023-06-26T13:06:04;51.14;49.46;52.71;;
48148;Laerm;29352;48.708;9.290;2023-06-26T13:08:29;51.09;49.21;52.47;;
48148;Laerm;29352;48.708;9.290;2023-06-26T13:10:55;51.08;49.34;52.47;;
48148;Laerm;29352;48.708;9.290;2023-06-26T13:13:20;51.01;49.34;52.59;;
48148;Laerm;29352;48.708;9.290;2023-06-26T13:15:46;51.06;48.67;52.41;;
48148;Laerm;29352;48.708;9.290;2023-06-26T13:18:11;51.08;49.46;52.59;;
48148;Laerm;29352;48.708;9.290;2023-06-26T13:20:36;51.09;49.08;52.47;;
48148;Laerm;29352;48.708;9.290;2023-06-26T13:23:02;51.07;49.46;52.41;;
48148;Laerm;29352;48.708;9.290;2023-06-26T13:25:28;51.03;49.46;52.53;;
48148;Laerm;29352;48.708;9.290;2023-06-26T13:27:53;51.04;49.21;52.59;;
48148;Laerm;29352;48.708;9.290;2023-06-26T13:30:18;51.05;48.95;52.53;;
48148;Laerm;29352;48.708;9.290;2023-06-26T13:32:44;51.01;48.95;52.47;;
48148;Laerm;29352;48.708;9.290;2023-06-26T13:35:09;51.00;49.08;52.59;;
48148;Laerm;29352;48.708;9.290;2023-06-26T13:37:35;51.05;49.34;52.35;;
48148;Laerm;29352;48.708;9.290;2023-06-26T13:40:02;51.06;49.21;52.53;;
48148;Laerm;29352;48.708;9.290;2023-06-26T13:42:29;51.09;49.21;52.65;;
48148;Laerm;29352;48.708;9.290;2023-06-26T13:44:54;51.10;49.21;52.65;;
48148;Laerm;29352;48.708;9.290;2023-06-26T13:47:20;51.12;49.08;52.47;;
48148;Laerm;29352;48.708;9.290;2023-06-26T13:49:46;51.09;49.34;52.71;;
48148;Laerm;29352;48.708;9.290;2023-06-26T13:52:12;51.09;49.34;52.53;;
48148;Laerm;29352;48.708;9.290;2023-06-26T13:54:37;51.09;49.34;52.47;;
48148;Laerm;29352;48.708;9.290;2023-06-26T13:57:07;51.12;49.08;52.65;;
48148;Laerm;29352;48.708;9.290;2023-06-26T13:59:36;51.14;49.21;52.65;;
48148;Laerm;29352;48.708;9.290;2023-06-26T14:02:02;51.14;49.21;52.53;;
48148;Laerm;29352;48.708;9.290;2023-06-26T14:04:27;51.13;49.21;52.59;;
48148;Laerm;29352;48.708;9.290;2023-06-26T14:06:53;51.14;49.46;52.47;;